createdAt,value
2023-02-11T00:01:57.332Z,103235.53
2023-02-11T00:06:21.331Z,103229.47
2023-02-11T00:10:32.535Z,103224.94
2023-02-11T00:14:40.588Z,103237.50
2023-02-11T00:18:52.809Z,103231.59
2023-02-11T00:23:08.563Z,103232.00
2023-02-11T00:27:17.023Z,103231.06
2023-02-11T00:31:24.023Z,103223.06
2023-02-11T00:35:54.552Z,103212.91
2023-02-11T00:39:56.365Z,103209.06
2023-02-11T00:44:07.553Z,103204.53
2023-02-11T00:48:20.747Z,103199.63
2023-02-11T00:52:35.724Z,103198.78
2023-02-11T00:56:45.786Z,103192.91
2023-02-11T01:01:00.279Z,103187.16
2023-02-11T01:05:06.868Z,103188.28
2023-02-11T01:09:31.785Z,103198.31
2023-02-11T01:13:51.149Z,103197.06
2023-02-11T01:17:58.839Z,103189.84
2023-02-11T01:22:10.843Z,103194.47
2023-02-11T01:26:24.184Z,103200.38
2023-02-11T01:30:28.516Z,103206.59
2023-02-11T01:34:52.201Z,103203.78
2023-02-11T01:44:11.084Z,103197.97
2023-02-11T01:48:21.878Z,103201.16
2023-02-11T01:52:29.484Z,103192.28
2023-02-11T01:56:53.271Z,103193.31
2023-02-11T02:01:02.204Z,103199.75
2023-02-11T02:13:53.997Z,103192.19
2023-02-11T02:18:08.666Z,103190.03
2023-02-11T02:22:29.888Z,103193.81
2023-02-11T02:26:51.120Z,103198.41
2023-02-11T02:31:08.000Z,103193.41
2023-02-11T02:35:20.045Z,103182.41
2023-02-11T02:39:36.556Z,103183.28
2023-02-11T02:43:39.963Z,103177.50
2023-02-11T02:47:45.885Z,103173.06
2023-02-11T02:52:15.042Z,103179.41
2023-02-11T02:56:39.340Z,103170.56
2023-02-11T03:00:51.360Z,103164.13
2023-02-11T03:05:02.032Z,103173.75
2023-02-11T03:09:21.305Z,103162.97
2023-02-11T03:13:40.791Z,103156.06
2023-02-11T03:23:03.053Z,103162.31
2023-02-11T03:27:50.210Z,103160.63
2023-02-11T03:48:30.222Z,103135.38
2023-02-11T03:52:50.250Z,103138.66
2023-02-11T04:01:17.328Z,103135.72
2023-02-11T04:05:31.516Z,103137.91
2023-02-11T04:09:36.889Z,103137.41
2023-02-11T04:13:41.029Z,103136.13
2023-02-11T04:17:42.767Z,103131.38
2023-02-11T04:21:48.630Z,103127.13
2023-02-11T04:26:12.522Z,103129.28
2023-02-11T04:30:21.657Z,103126.94
2023-02-11T04:34:29.987Z,103132.88
2023-02-11T04:42:48.768Z,103122.06
2023-02-11T04:46:49.518Z,103126.63
2023-02-11T04:50:57.668Z,103125.28
2023-02-11T04:55:01.380Z,103117.72
2023-02-11T04:59:03.216Z,103119.84
2023-02-11T05:03:04.070Z,103123.22
2023-02-11T05:07:07.213Z,103134.88
2023-02-11T05:11:25.309Z,103153.16
2023-02-11T05:15:55.451Z,103149.16
2023-02-11T05:20:00.901Z,103140.81
2023-02-11T05:24:03.751Z,103143.25
2023-02-11T05:28:16.987Z,103143.38
2023-02-11T05:32:44.608Z,103146.59
2023-02-11T05:37:05.228Z,103139.91
2023-02-11T05:41:09.657Z,103149.13
2023-02-11T05:45:13.260Z,103152.31
2023-02-11T05:49:15.746Z,103152.22
2023-02-11T05:53:22.328Z,103166.34
2023-02-11T05:57:40.585Z,103176.84
2023-02-11T06:01:57.707Z,103184.00
2023-02-11T06:06:02.446Z,103186.38
2023-02-11T06:10:18.757Z,103183.22
2023-02-11T06:14:20.419Z,103186.78
2023-02-11T06:18:23.620Z,103185.63
2023-02-11T06:22:25.082Z,103178.47
2023-02-11T06:26:30.946Z,103178.19
2023-02-11T06:30:44.721Z,103173.63
2023-02-11T06:35:05.952Z,103170.03
2023-02-11T06:39:11.070Z,103169.75
2023-02-11T06:43:19.681Z,103157.69
2023-02-11T06:47:21.165Z,103160.22
2023-02-11T06:51:32.554Z,103157.31
2023-02-11T06:55:37.475Z,103146.00
2023-02-11T06:59:40.092Z,103154.31
2023-02-11T07:03:46.056Z,103151.19
2023-02-11T07:07:59.187Z,103148.41
2023-02-11T07:12:01.367Z,103139.41
2023-02-11T07:16:09.759Z,103146.06
2023-02-11T07:20:13.754Z,103152.25
2023-02-11T07:24:20.801Z,103150.34
2023-02-11T07:28:22.907Z,103149.09
2023-02-11T07:32:32.134Z,103153.44
2023-02-11T07:36:41.360Z,103148.25
2023-02-11T07:40:47.838Z,103141.09
2023-02-11T07:44:50.565Z,103135.03
2023-02-11T07:48:59.246Z,103132.00
2023-02-11T07:53:04.308Z,103131.47
2023-02-11T07:57:09.764Z,103130.13
2023-02-11T08:01:14.547Z,103115.94
2023-02-11T08:05:39.542Z,103103.88
2023-02-11T08:09:41.691Z,103108.41
2023-02-11T08:13:59.841Z,103105.81
2023-02-11T08:18:05.546Z,103093.59
2023-02-11T08:22:18.221Z,103099.47
2023-02-11T08:26:39.119Z,103092.97
2023-02-11T08:30:54.752Z,103087.03
2023-02-11T08:35:31.773Z,103087.94
2023-02-11T08:39:47.539Z,103084.72
2023-02-11T08:43:56.046Z,103087.34
2023-02-11T08:48:23.214Z,103078.94
2023-02-11T08:52:35.734Z,103088.06
2023-02-11T08:56:37.199Z,103083.34
2023-02-11T09:00:40.735Z,103093.25
2023-02-11T09:04:54.666Z,103094.78
2023-02-11T09:09:19.990Z,103097.22
2023-02-11T09:13:53.964Z,103091.53
2023-02-11T09:17:58.840Z,103080.50
2023-02-11T09:22:32.868Z,103085.63
2023-02-11T09:26:50.921Z,103075.47
2023-02-11T09:31:02.169Z,103066.69
2023-02-11T09:35:08.300Z,103055.13
2023-02-11T09:39:12.018Z,103041.28
2023-02-11T09:43:21.646Z,103039.47
2023-02-11T09:47:31.553Z,103032.53
2023-02-11T09:51:53.455Z,103025.16
2023-02-11T09:56:34.996Z,103020.13
2023-02-11T10:00:53.113Z,103012.69
2023-02-11T10:05:24.668Z,102998.69
2023-02-11T10:10:12.107Z,102996.72
2023-02-11T10:14:29.750Z,102986.00
2023-02-11T10:19:03.469Z,102973.84
2023-02-11T10:23:18.958Z,102963.59
2023-02-11T10:27:33.076Z,102955.59
2023-02-11T10:31:49.438Z,102949.25
2023-02-11T10:35:53.231Z,102939.47
2023-02-11T10:39:57.253Z,102924.06
2023-02-11T10:44:01.281Z,102922.28
2023-02-11T10:48:07.228Z,102923.63
2023-02-11T10:52:19.977Z,102909.25
2023-02-11T10:56:29.832Z,102896.69
2023-02-11T11:00:39.894Z,102892.06
2023-02-11T11:04:42.104Z,102893.06
2023-02-11T11:08:52.030Z,102884.44
2023-02-11T11:12:55.949Z,102875.41
2023-02-11T11:17:00.482Z,102878.28
2023-02-11T11:21:02.976Z,102862.47
2023-02-11T11:25:22.042Z,102856.72
2023-02-11T11:29:32.207Z,102854.19
2023-02-11T11:33:39.710Z,102850.03
2023-02-11T11:37:49.974Z,102836.91
2023-02-11T11:41:57.788Z,102836.59
2023-02-11T11:46:00.779Z,102819.28
2023-02-11T11:50:21.261Z,102818.81
2023-02-11T11:54:24.182Z,102799.69
2023-02-11T11:58:39.903Z,102793.59
2023-02-11T12:03:02.293Z,102790.16
2023-02-11T12:07:23.943Z,102781.81
2023-02-11T12:11:36.720Z,102770.97
2023-02-11T12:15:52.193Z,102766.38
2023-02-11T12:20:19.964Z,102750.59
2023-02-11T12:24:32.465Z,102748.19
2023-02-11T12:28:43.676Z,102737.53
2023-02-11T12:33:13.999Z,102723.31
2023-02-11T12:37:34.104Z,102706.25
2023-02-11T12:42:06.186Z,102708.69
2023-02-11T12:46:29.018Z,102697.25
2023-02-11T12:50:50.625Z,102701.41
2023-02-11T12:55:04.737Z,102699.75
2023-02-11T12:59:21.764Z,102691.34
2023-02-11T13:12:58.279Z,102675.47
2023-02-11T13:17:03.252Z,102665.56
2023-02-11T13:21:13.522Z,102657.41
2023-02-11T13:25:28.397Z,102655.28
2023-02-11T13:29:43.067Z,102638.59
2023-02-11T13:34:30.414Z,102627.44
2023-02-11T13:38:35.534Z,102624.03
2023-02-11T13:42:51.833Z,102623.72
2023-02-11T13:46:57.805Z,102617.94
2023-02-11T13:51:02.869Z,102608.97
2023-02-11T13:55:13.831Z,102606.66
2023-02-11T13:59:30.671Z,102599.69
2023-02-11T14:03:53.946Z,102601.34
2023-02-11T14:08:42.730Z,102603.81
2023-02-11T14:12:46.227Z,102602.41
2023-02-11T14:17:06.758Z,102600.34
2023-02-11T14:21:19.276Z,102590.91
2023-02-11T14:25:25.938Z,102593.44
2023-02-11T14:29:39.634Z,102596.78
2023-02-11T14:33:56.303Z,102586.97
2023-02-11T14:38:05.957Z,102574.69
2023-02-11T14:42:20.526Z,102574.41
2023-02-11T14:46:31.728Z,102568.84
2023-02-11T14:50:40.125Z,102561.09
2023-02-11T14:54:44.974Z,102548.03
2023-02-11T14:58:53.993Z,102554.81
2023-02-11T15:02:56.987Z,102543.28
2023-02-11T15:06:59.238Z,102547.47
2023-02-11T15:11:05.512Z,102534.16
2023-02-11T15:15:08.239Z,102542.75
2023-02-11T15:19:10.560Z,102531.75
2023-02-11T15:23:14.730Z,102528.53
2023-02-11T15:27:21.255Z,102512.72
2023-02-11T15:31:27.489Z,102514.75
2023-02-11T15:35:37.895Z,102531.81
2023-02-11T15:39:41.478Z,102520.38
2023-02-11T15:43:46.266Z,102528.22
2023-02-11T15:48:01.152Z,102511.16
2023-02-11T15:52:05.354Z,102507.19
2023-02-11T15:56:13.256Z,102507.78
2023-02-11T16:00:23.596Z,102512.69
2023-02-11T16:04:27.716Z,102509.84
2023-02-11T16:08:32.807Z,102508.38
2023-02-11T16:12:36.111Z,102503.34
2023-02-11T16:16:40.087Z,102495.41
2023-02-11T16:20:44.054Z,102506.16
2023-02-11T16:24:52.975Z,102507.66
2023-02-11T16:28:54.193Z,102494.75
2023-02-11T16:33:19.342Z,102489.66
2023-02-11T16:37:24.576Z,102481.63
2023-02-11T16:41:30.178Z,102482.28
2023-02-11T16:45:34.875Z,102478.41
2023-02-11T16:49:39.802Z,102482.69
2023-02-11T16:54:02.810Z,102482.97
2023-02-11T16:58:06.749Z,102485.38
2023-02-11T17:02:21.710Z,102484.88
2023-02-11T17:06:35.242Z,102486.63
2023-02-11T17:10:50.908Z,102485.22
2023-02-11T17:14:55.249Z,102483.94
2023-02-11T17:19:04.910Z,102488.69
2023-02-11T17:23:05.973Z,102481.41
2023-02-11T17:27:09.886Z,102481.34
2023-02-11T17:31:15.834Z,102484.53
2023-02-11T17:35:17.404Z,102487.97
2023-02-11T17:39:19.876Z,102489.53
2023-02-11T17:43:25.038Z,102479.03
2023-02-11T17:47:25.786Z,102476.69
2023-02-11T17:51:28.369Z,102486.28
2023-02-11T17:55:38.949Z,102488.72
2023-02-11T17:59:43.344Z,102484.00
2023-02-11T18:03:44.020Z,102465.72
2023-02-11T18:07:44.448Z,102464.34
2023-02-11T18:11:48.425Z,102462.34
2023-02-11T18:15:51.626Z,102457.56
2023-02-11T18:19:52.528Z,102461.03
2023-02-11T18:23:53.579Z,102454.75
2023-02-11T18:27:54.089Z,102450.75
2023-02-11T18:32:00.217Z,102439.78
2023-02-11T18:36:06.977Z,102435.53
2023-02-11T18:40:08.044Z,102433.75
2023-02-11T18:44:09.604Z,102434.41
2023-02-11T18:48:11.988Z,102419.75
2023-02-11T18:52:13.436Z,102422.09
2023-02-11T18:56:17.661Z,102413.94
2023-02-11T19:00:20.860Z,102417.63
2023-02-11T19:04:23.668Z,102409.53
2023-02-11T19:08:33.329Z,102410.31
2023-02-11T19:12:34.564Z,102407.53
2023-02-11T19:16:42.501Z,102402.91
2023-02-11T19:20:48.347Z,102386.47
2023-02-11T19:24:49.598Z,102385.91
2023-02-11T19:28:52.290Z,102378.84
2023-02-11T19:32:58.017Z,102367.78
2023-02-11T19:37:01.811Z,102360.28
2023-02-11T19:41:03.031Z,102359.03
2023-02-11T19:45:19.964Z,102346.06
2023-02-11T19:49:24.375Z,102339.13
2023-02-11T19:53:27.301Z,102328.81
2023-02-11T19:57:28.012Z,102329.56
2023-02-11T20:01:31.708Z,102330.75
2023-02-11T20:05:34.197Z,102319.53
2023-02-11T20:09:41.226Z,102315.16
2023-02-11T20:13:55.437Z,102307.75
2023-02-11T20:17:55.700Z,102310.34
2023-02-11T20:21:58.754Z,102304.06
2023-02-11T20:26:03.126Z,102298.25
2023-02-11T20:30:14.829Z,102285.66
2023-02-11T20:34:17.363Z,102277.63
2023-02-11T20:38:25.624Z,102281.69
2023-02-11T20:42:31.928Z,102280.50
2023-02-11T20:46:34.352Z,102276.53
2023-02-11T20:50:36.463Z,102271.88
2023-02-11T20:54:51.621Z,102260.38
2023-02-11T20:58:58.361Z,102246.16
2023-02-11T21:03:05.107Z,102240.66
2023-02-11T21:07:05.390Z,102230.75
2023-02-11T21:11:12.544Z,102231.38
2023-02-11T21:15:15.339Z,102224.50
2023-02-11T21:19:26.234Z,102222.13
2023-02-11T21:23:29.108Z,102217.56
2023-02-11T21:27:33.242Z,102216.09
2023-02-11T21:31:38.605Z,102208.84
2023-02-11T21:35:39.406Z,102213.34
2023-02-11T21:39:39.267Z,102203.72
2023-02-11T21:43:40.446Z,102207.78
2023-02-11T21:47:41.993Z,102205.41
2023-02-11T21:51:42.515Z,102215.44
2023-02-11T21:55:43.044Z,102223.78
2023-02-11T21:59:43.870Z,102236.28
2023-02-11T22:03:46.306Z,102245.41
2023-02-11T22:07:46.625Z,102234.28
2023-02-11T22:11:49.631Z,102222.31
2023-02-11T22:15:59.676Z,102223.47
2023-02-11T22:20:10.195Z,102225.16
2023-02-11T22:24:11.834Z,102224.88
2023-02-11T22:28:11.583Z,102217.34
2023-02-11T22:32:13.062Z,102210.88
2023-02-11T22:36:19.076Z,102207.72
2023-02-11T22:40:23.809Z,102205.91
2023-02-11T22:44:31.520Z,102204.03
2023-02-11T22:48:35.129Z,102203.16
2023-02-11T22:52:44.057Z,102202.03
2023-02-11T22:56:52.280Z,102196.59
2023-02-11T23:00:53.793Z,102183.69
2023-02-11T23:04:55.196Z,102173.84
2023-02-11T23:09:02.190Z,102175.25
2023-02-11T23:13:07.336Z,102176.16
2023-02-11T23:17:21.802Z,102165.03
2023-02-11T23:21:38.724Z,102150.28
2023-02-11T23:26:11.542Z,102140.94
2023-02-11T23:30:20.975Z,102145.41
2023-02-11T23:34:25.491Z,102138.34
2023-02-11T23:38:30.557Z,102123.28
2023-02-11T23:42:35.393Z,102122.41
2023-02-11T23:46:40.544Z,102132.22
2023-02-11T23:50:48.765Z,102144.13
2023-02-11T23:54:50.028Z,102156.59
2023-02-11T23:59:14.105Z,102157.00
